createdAt,value
2022-08-05T00:00:17.508Z,1.10
2022-08-05T00:02:50.430Z,1.30
2022-08-05T00:06:06.539Z,1.23
2022-08-05T00:08:34.319Z,1.23
2022-08-05T00:11:03.232Z,1.08
2022-08-05T00:13:38.922Z,0.85
2022-08-05T00:18:37.956Z,1.60
2022-08-05T00:21:08.331Z,1.33
2022-08-05T00:23:46.123Z,0.80
2022-08-05T00:26:21.044Z,1.05
2022-08-05T00:28:50.727Z,1.20
2022-08-05T00:31:53.912Z,1.08
2022-08-05T00:34:53.818Z,1.08
2022-08-05T00:37:09.721Z,1.15
2022-08-05T00:39:57.173Z,1.15
2022-08-05T00:42:36.727Z,0.90
2022-08-05T00:45:08.494Z,1.02
2022-08-05T00:47:56.302Z,0.98
2022-08-05T00:50:25.784Z,0.90
2022-08-05T00:52:55.315Z,1.20
2022-08-05T00:55:34.137Z,0.80
2022-08-05T00:58:11.610Z,1.60
2022-08-05T01:00:39.838Z,1.00
2022-08-05T01:03:08.125Z,1.20
2022-08-05T01:05:35.739Z,1.00
2022-08-05T01:08:40.662Z,1.23
2022-08-05T01:11:14.004Z,0.88
2022-08-05T01:14:28.493Z,1.63
2022-08-05T01:17:02.043Z,1.00
2022-08-05T01:20:01.881Z,1.15
2022-08-05T01:22:52.571Z,1.08
2022-08-05T01:25:53.251Z,1.00
2022-08-05T01:28:28.391Z,1.10
2022-08-05T01:31:09.532Z,1.08
2022-08-05T01:33:49.156Z,1.63
2022-08-05T01:36:28.474Z,0.82
2022-08-05T01:39:01.216Z,0.70
2022-08-05T01:41:34.633Z,0.70
2022-08-05T01:44:02.882Z,1.17
2022-08-05T01:46:43.184Z,1.17
2022-08-05T01:49:23.709Z,1.20
2022-08-05T01:51:58.377Z,1.20
2022-08-05T01:54:49.030Z,1.17
2022-08-05T01:58:10.213Z,1.92
2022-08-05T02:00:14.263Z,1.23
2022-08-05T02:02:46.436Z,1.17
2022-08-05T02:05:23.519Z,1.05
2022-08-05T02:07:57.842Z,0.85
2022-08-05T02:10:32.897Z,1.42
2022-08-05T02:13:16.847Z,1.30
2022-08-05T02:15:54.031Z,1.30
2022-08-05T02:18:31.138Z,1.17
2022-08-05T02:21:14.706Z,0.85
2022-08-05T02:23:46.333Z,0.85
2022-08-05T02:26:17.236Z,1.50
2022-08-05T02:28:46.547Z,1.23
2022-08-05T02:31:21.119Z,1.10
2022-08-05T02:33:58.090Z,1.00
2022-08-05T02:36:27.293Z,1.38
2022-08-05T02:38:59.897Z,0.95
2022-08-05T02:41:42.835Z,1.50
2022-08-05T02:44:17.841Z,1.35
2022-08-05T02:46:58.250Z,1.02
2022-08-05T02:49:35.984Z,0.82
2022-08-05T02:52:30.051Z,1.63
2022-08-05T02:55:05.519Z,1.05
2022-08-05T02:58:10.072Z,1.55
2022-08-05T03:00:29.077Z,1.58
2022-08-05T03:02:58.769Z,1.10
2022-08-05T03:06:55.754Z,1.27
2022-08-05T03:08:15.673Z,1.35
2022-08-05T03:11:00.924Z,1.05
2022-08-05T03:13:51.838Z,0.95
2022-08-05T03:16:21.151Z,1.25
2022-08-05T03:18:48.835Z,1.42
2022-08-05T03:21:16.240Z,1.60
2022-08-05T03:23:45.656Z,1.02
2022-08-05T03:26:31.799Z,1.35
2022-08-05T03:28:59.951Z,1.10
2022-08-05T03:31:57.316Z,1.02
2022-08-05T03:34:16.546Z,1.15
2022-08-05T03:36:44.133Z,1.33
2022-08-05T03:39:20.341Z,1.88
2022-08-05T03:41:56.275Z,1.30
2022-08-05T03:44:25.060Z,1.10
2022-08-05T03:46:56.552Z,1.40
2022-08-05T03:49:24.193Z,2.05
2022-08-05T03:52:39.424Z,1.02
2022-08-05T03:56:05.238Z,1.17
2022-08-05T03:57:52.596Z,1.10
2022-08-05T04:00:26.658Z,1.20
2022-08-05T04:02:58.427Z,1.58
2022-08-05T04:05:34.629Z,1.40
2022-08-05T04:08:05.667Z,1.55
2022-08-05T04:10:45.253Z,1.50
2022-08-05T04:13:13.224Z,1.50
2022-08-05T04:16:02.919Z,1.17
2022-08-05T04:18:28.700Z,1.13
2022-08-05T04:20:58.029Z,1.88
2022-08-05T04:24:05.659Z,1.45
2022-08-05T04:26:15.606Z,1.67
2022-08-05T04:28:51.221Z,1.10
2022-08-05T04:31:20.070Z,1.45
2022-08-05T04:34:18.826Z,1.48
2022-08-05T04:36:46.089Z,1.70
2022-08-05T04:39:18.699Z,1.52
2022-08-05T04:41:48.022Z,1.17
2022-08-05T04:44:21.290Z,1.80
2022-08-05T04:46:58.669Z,1.60
2022-08-05T04:49:38.823Z,2.35
2022-08-05T04:52:15.952Z,3.25
2022-08-05T04:54:43.524Z,1.45
2022-08-05T04:57:11.073Z,1.08
2022-08-05T04:59:40.588Z,1.63
2022-08-05T05:02:36.333Z,1.50
2022-08-05T05:05:01.940Z,1.10
2022-08-05T05:07:31.886Z,1.45
2022-08-05T05:09:59.670Z,1.90
2022-08-05T05:12:29.650Z,1.80
2022-08-05T05:14:56.983Z,1.30
2022-08-05T05:17:56.645Z,1.30
2022-08-05T05:20:14.331Z,1.30
2022-08-05T05:22:44.166Z,1.10
2022-08-05T05:25:16.726Z,1.50
2022-08-05T05:27:48.798Z,1.00
2022-08-05T05:30:31.558Z,1.30
2022-08-05T05:33:13.883Z,1.20
2022-08-05T05:35:47.900Z,1.33
2022-08-05T05:38:22.376Z,1.65
2022-08-05T05:40:55.764Z,1.70
2022-08-05T05:43:56.465Z,1.20
2022-08-05T05:46:17.756Z,1.48
2022-08-05T05:48:48.179Z,1.55
2022-08-05T05:51:23.861Z,1.00
2022-08-05T05:53:57.311Z,1.80
2022-08-05T05:56:32.692Z,1.52
2022-08-05T05:59:07.510Z,1.37
2022-08-05T06:01:38.894Z,1.60
2022-08-05T06:04:12.020Z,1.40
2022-08-05T06:06:42.411Z,1.23
2022-08-05T06:09:16.705Z,1.92
2022-08-05T06:12:01.081Z,2.25
2022-08-05T06:14:33.261Z,1.40
2022-08-05T06:17:22.560Z,1.63
2022-08-05T06:19:57.232Z,1.63
2022-08-05T06:22:29.725Z,2.08
2022-08-05T06:24:57.591Z,1.98
2022-08-05T06:28:09.252Z,1.30
2022-08-05T06:30:17.683Z,1.42
2022-08-05T06:32:47.652Z,1.20
2022-08-05T06:35:15.493Z,1.23
2022-08-05T06:38:11.492Z,1.33
2022-08-05T06:40:44.614Z,1.15
2022-08-05T06:43:59.826Z,1.38
2022-08-05T06:46:04.118Z,2.13
2022-08-05T06:48:53.518Z,1.90
2022-08-05T06:51:30.263Z,2.30
2022-08-05T06:54:03.022Z,2.35
2022-08-05T06:56:34.491Z,1.50
2022-08-05T06:59:09.401Z,1.55
2022-08-05T07:01:37.204Z,2.38
2022-08-05T07:04:08.336Z,2.08
2022-08-05T07:06:35.828Z,1.75
2022-08-05T07:09:03.983Z,1.10
2022-08-05T07:11:36.739Z,1.40
2022-08-05T07:14:29.530Z,1.80
2022-08-05T07:17:58.779Z,1.60
2022-08-05T07:20:32.402Z,1.48
2022-08-05T07:22:38.493Z,2.13
2022-08-05T07:25:23.720Z,1.90
2022-08-05T07:27:58.346Z,1.50
2022-08-05T07:30:38.679Z,1.58
2022-08-05T07:33:16.063Z,1.67
2022-08-05T07:36:04.400Z,1.90
2022-08-05T07:38:42.779Z,1.25
2022-08-05T07:42:08.710Z,1.80
2022-08-05T07:44:05.668Z,1.70
2022-08-05T07:46:42.007Z,1.70
2022-08-05T07:49:18.125Z,1.33
2022-08-05T07:51:53.334Z,2.05
2022-08-05T07:54:30.943Z,2.50
2022-08-05T07:57:16.795Z,1.58
2022-08-05T07:59:52.029Z,2.88
2022-08-05T08:02:26.746Z,1.83
2022-08-05T08:04:59.014Z,2.00
2022-08-05T08:07:28.421Z,1.30
2022-08-05T08:09:56.155Z,1.42
2022-08-05T08:12:33.266Z,1.65
2022-08-05T08:15:15.291Z,1.85
2022-08-05T08:17:46.303Z,2.05
2022-08-05T08:20:45.091Z,2.47
2022-08-05T08:23:11.714Z,1.70
2022-08-05T08:26:02.437Z,2.42
2022-08-05T08:28:36.427Z,1.30
2022-08-05T08:31:08.298Z,1.27
2022-08-05T08:33:37.842Z,1.15
2022-08-05T08:38:55.922Z,2.50
2022-08-05T08:41:52.593Z,1.83
2022-08-05T08:45:17.127Z,1.35
2022-08-05T08:47:47.724Z,1.83
2022-08-05T08:50:05.915Z,1.52
2022-08-05T08:52:51.763Z,1.10
2022-08-05T08:56:02.976Z,1.73
2022-08-05T08:58:09.980Z,1.90
2022-08-05T09:00:42.752Z,1.58
2022-08-05T09:03:16.273Z,1.27
2022-08-05T09:08:34.408Z,1.20
2022-08-05T09:11:02.217Z,1.55
2022-08-05T09:13:31.901Z,2.08
2022-08-05T09:16:18.417Z,1.30
2022-08-05T09:18:47.288Z,1.30
2022-08-05T09:22:13.552Z,1.48
2022-08-05T09:24:12.883Z,1.45
2022-08-05T09:26:40.293Z,1.38
2022-08-05T09:29:11.144Z,1.10
2022-08-05T09:32:41.804Z,1.20
2022-08-05T09:34:52.749Z,1.27
2022-08-05T09:38:12.173Z,1.17
2022-08-05T09:40:09.978Z,1.20
2022-08-05T09:42:41.096Z,0.95
2022-08-05T09:46:04.553Z,1.52
2022-08-05T09:47:57.540Z,1.20
2022-08-05T09:50:44.866Z,1.77
2022-08-05T09:53:22.758Z,0.95
2022-08-05T09:56:03.828Z,1.25
2022-08-05T09:58:41.979Z,1.17
2022-08-05T10:01:15.350Z,1.10
2022-08-05T10:04:03.251Z,1.10
2022-08-05T10:06:31.982Z,1.17
2022-08-05T10:09:27.680Z,1.20
2022-08-05T10:15:16.991Z,0.82
2022-08-05T10:18:01.722Z,1.20
2022-08-05T10:20:30.143Z,1.25
2022-08-05T10:22:58.724Z,0.85
2022-08-05T10:25:26.784Z,0.98
2022-08-05T10:28:13.250Z,1.00
2022-08-05T10:32:54.988Z,1.10
2022-08-05T10:33:35.200Z,1.23
2022-08-05T10:36:04.678Z,1.35
2022-08-05T10:38:33.831Z,1.13
2022-08-05T10:41:23.494Z,0.93
2022-08-05T10:44:06.927Z,1.02
2022-08-05T10:46:55.129Z,1.27
2022-08-05T10:49:26.574Z,1.00
2022-08-05T10:52:02.647Z,0.98
2022-08-05T10:55:04.358Z,1.03
2022-08-05T10:57:34.196Z,0.98
2022-08-05T11:00:13.298Z,1.05
2022-08-05T11:03:23.239Z,1.42
2022-08-05T11:06:15.769Z,1.10
2022-08-05T11:09:16.740Z,1.15
2022-08-05T11:11:52.844Z,1.80
2022-08-05T11:15:00.945Z,1.13
2022-08-05T11:17:59.624Z,1.35
2022-08-05T11:20:41.835Z,1.50
2022-08-05T11:24:02.867Z,1.48
2022-08-05T11:26:32.094Z,2.88
2022-08-05T11:29:12.359Z,6.30
2022-08-05T11:31:53.888Z,8.23
2022-08-05T11:34:37.739Z,12.73
2022-08-05T11:37:06.271Z,4.57
2022-08-05T11:40:00.858Z,2.42
2022-08-05T11:42:40.406Z,1.25
2022-08-05T11:45:14.491Z,1.85
2022-08-05T11:47:51.101Z,1.73
2022-08-05T11:50:22.925Z,2.08
2022-08-05T11:52:54.436Z,2.20
2022-08-05T11:55:32.062Z,5.97
2022-08-05T11:58:10.088Z,1.60
2022-08-05T12:00:41.561Z,2.45
2022-08-05T12:03:29.215Z,1.60
2022-08-05T12:06:06.474Z,1.58
2022-08-05T12:08:50.052Z,1.20
2022-08-05T12:11:20.568Z,1.20
2022-08-05T12:13:58.538Z,1.30
2022-08-05T12:16:29.667Z,1.40
2022-08-05T12:18:56.982Z,1.50
2022-08-05T12:21:39.130Z,1.27
2022-08-05T12:24:09.348Z,1.35
2022-08-05T12:26:44.013Z,1.05
2022-08-05T12:29:16.422Z,1.33
2022-08-05T12:31:53.266Z,1.27
2022-08-05T12:34:31.429Z,1.17
2022-08-05T12:37:26.686Z,1.38
2022-08-05T12:40:03.232Z,1.25
2022-08-05T12:42:31.802Z,1.00
2022-08-05T12:45:10.284Z,1.13
2022-08-05T12:47:38.333Z,1.40
2022-08-05T12:50:17.699Z,0.98
2022-08-05T12:55:32.801Z,1.20
2022-08-05T12:58:48.635Z,1.55
2022-08-05T13:02:00.691Z,0.90
2022-08-05T13:03:38.998Z,1.00
2022-08-05T13:06:16.170Z,0.93
2022-08-05T13:08:50.850Z,1.33
2022-08-05T13:14:44.802Z,1.00
2022-08-05T13:17:31.646Z,0.90
2022-08-05T13:20:08.637Z,0.93
2022-08-05T13:22:41.030Z,1.58
2022-08-05T13:25:19.017Z,1.00
2022-08-05T13:27:51.105Z,1.38
2022-08-05T13:30:35.184Z,0.80
2022-08-05T13:33:04.366Z,0.77
2022-08-05T13:35:47.330Z,1.20
2022-08-05T13:38:30.809Z,1.10
2022-08-05T13:41:03.902Z,0.93
2022-08-05T13:43:43.538Z,0.90
2022-08-05T13:46:14.002Z,0.90
2022-08-05T13:48:58.484Z,1.38
2022-08-05T13:51:40.285Z,0.83
2022-08-05T13:54:11.757Z,0.80
2022-08-05T13:56:51.169Z,0.85
2022-08-05T13:59:23.797Z,0.73
2022-08-05T14:01:58.663Z,1.25
2022-08-05T14:05:00.779Z,1.55
2022-08-05T14:07:59.845Z,1.00
2022-08-05T14:10:28.373Z,1.10
2022-08-05T14:12:57.226Z,1.23
2022-08-05T14:16:06.815Z,1.33
2022-08-05T14:18:14.736Z,0.82
2022-08-05T14:20:48.826Z,1.33
2022-08-05T14:23:24.014Z,0.98
2022-08-05T14:25:57.994Z,0.70
2022-08-05T14:28:30.258Z,0.90
2022-08-05T14:30:59.114Z,1.05
2022-08-05T14:33:26.472Z,1.10
2022-08-05T14:35:54.412Z,0.77
2022-08-05T14:38:27.844Z,1.00
2022-08-05T14:41:05.946Z,1.17
2022-08-05T14:43:57.798Z,0.82
2022-08-05T14:46:29.733Z,0.95
2022-08-05T14:49:06.427Z,1.20
2022-08-05T14:51:37.663Z,2.35
2022-08-05T14:54:30.015Z,1.45
2022-08-05T14:56:54.995Z,1.40
2022-08-05T14:59:22.692Z,1.20
2022-08-05T15:01:50.879Z,1.08
2022-08-05T15:04:20.560Z,0.77
2022-08-05T15:06:51.068Z,0.85
2022-08-05T15:09:51.305Z,1.02
2022-08-05T15:12:11.153Z,1.25
2022-08-05T15:14:49.901Z,1.15
2022-08-05T15:17:46.788Z,1.02
2022-08-05T15:20:18.569Z,0.85
2022-08-05T15:22:54.129Z,1.17
2022-08-05T15:25:51.485Z,1.03
2022-08-05T15:28:15.661Z,1.75
2022-08-05T15:30:45.544Z,1.08
2022-08-05T15:34:04.564Z,1.10
2022-08-05T15:36:03.608Z,0.82
2022-08-05T15:38:36.562Z,0.70
2022-08-05T15:41:21.473Z,0.90
2022-08-05T15:43:56.766Z,0.70
2022-08-05T15:46:24.993Z,0.85
2022-08-05T15:48:58.760Z,0.88
2022-08-05T15:54:17.920Z,0.73
2022-08-05T15:56:45.272Z,0.77
2022-08-05T15:59:21.789Z,0.90
2022-08-05T16:01:52.856Z,0.80
2022-08-05T16:04:25.730Z,0.90
2022-08-05T16:06:55.428Z,0.98
2022-08-05T16:09:24.868Z,0.80
2022-08-05T16:11:54.266Z,0.77
2022-08-05T16:14:22.791Z,1.10
2022-08-05T16:16:50.743Z,0.80
2022-08-05T16:19:25.598Z,0.80
2022-08-05T16:22:06.252Z,1.10
2022-08-05T16:24:40.065Z,1.17
2022-08-05T16:27:09.842Z,0.82
2022-08-05T16:29:50.235Z,0.77
2022-08-05T16:32:28.679Z,0.90
2022-08-05T16:34:58.885Z,0.80
2022-08-05T16:38:16.429Z,0.90
2022-08-05T16:40:26.597Z,0.70
2022-08-05T16:42:57.188Z,0.90
2022-08-05T16:46:05.010Z,1.20
2022-08-05T16:48:11.841Z,1.02
2022-08-05T16:50:54.043Z,0.93
2022-08-05T16:53:32.079Z,1.10
2022-08-05T16:56:00.290Z,0.90
2022-08-05T16:58:27.655Z,0.80
2022-08-05T17:00:55.372Z,0.77
2022-08-05T17:03:22.840Z,0.80
2022-08-05T17:05:54.057Z,0.93
2022-08-05T17:08:36.332Z,0.70
2022-08-05T17:11:18.727Z,0.73
2022-08-05T17:13:46.432Z,0.70
2022-08-05T17:16:33.129Z,0.88
2022-08-05T17:19:01.491Z,1.00
2022-08-05T17:21:36.251Z,1.52
2022-08-05T17:24:19.667Z,0.90
2022-08-05T17:26:59.039Z,0.90
2022-08-05T17:29:33.632Z,1.20
2022-08-05T17:32:17.206Z,1.08
2022-08-05T17:37:39.587Z,0.90
2022-08-05T17:40:10.838Z,0.77
2022-08-05T17:42:41.810Z,0.63
2022-08-05T17:45:17.849Z,0.95
2022-08-05T17:47:54.053Z,0.70
2022-08-05T17:50:30.316Z,1.42
2022-08-05T17:53:02.994Z,1.00
2022-08-05T17:55:37.400Z,0.80
2022-08-05T17:58:12.248Z,0.98
2022-08-05T18:00:45.253Z,0.80
2022-08-05T18:03:39.247Z,0.90
2022-08-05T18:06:09.969Z,1.00
2022-08-05T18:08:44.178Z,1.63
2022-08-05T18:11:23.752Z,0.68
2022-08-05T18:13:53.916Z,1.20
2022-08-05T18:16:21.233Z,1.10
2022-08-05T18:18:50.027Z,0.77
2022-08-05T18:21:19.704Z,1.05
2022-08-05T18:23:53.765Z,1.00
2022-08-05T18:26:27.696Z,0.70
2022-08-05T18:28:57.793Z,0.70
2022-08-05T18:31:25.534Z,1.20
2022-08-05T18:34:00.522Z,1.10
2022-08-05T18:36:28.370Z,0.63
2022-08-05T18:38:56.141Z,1.27
2022-08-05T18:41:57.877Z,1.05
2022-08-05T18:44:12.737Z,1.00
2022-08-05T18:46:40.959Z,0.77
2022-08-05T18:49:30.685Z,1.00
2022-08-05T18:52:32.962Z,0.68
2022-08-05T18:55:02.306Z,0.80
2022-08-05T18:57:43.224Z,1.08
2022-08-05T19:00:20.714Z,0.93
2022-08-05T19:02:48.363Z,1.48
2022-08-05T19:06:11.127Z,0.85
2022-08-05T19:08:13.583Z,0.98
2022-08-05T19:10:42.706Z,0.70
2022-08-05T19:13:12.432Z,0.80
2022-08-05T19:16:00.236Z,0.70
2022-08-05T19:18:31.717Z,0.95
2022-08-05T19:20:59.735Z,1.08
2022-08-05T19:24:06.718Z,0.80
2022-08-05T19:26:16.580Z,1.17
2022-08-05T19:28:44.168Z,0.93
2022-08-05T19:31:12.956Z,1.35
2022-08-05T19:33:48.197Z,0.70
2022-08-05T19:36:27.207Z,1.40
2022-08-05T19:39:01.054Z,1.25
2022-08-05T19:41:58.033Z,1.42
2022-08-05T19:44:19.185Z,1.70
2022-08-05T19:46:47.166Z,1.88
2022-08-05T19:49:18.005Z,1.60
2022-08-05T19:52:05.328Z,1.40
2022-08-05T19:54:36.867Z,1.20
2022-08-05T19:57:06.451Z,1.10
2022-08-05T19:59:59.584Z,1.33
2022-08-05T20:02:28.016Z,1.88
2022-08-05T20:04:58.348Z,1.23
2022-08-05T20:07:48.148Z,1.23
2022-08-05T20:10:17.092Z,2.03
2022-08-05T20:12:47.851Z,1.38
2022-08-05T20:15:48.560Z,1.67
2022-08-05T20:18:10.205Z,1.15
2022-08-05T20:20:57.215Z,1.42
2022-08-05T20:23:40.573Z,1.33
2022-08-05T20:26:15.273Z,1.23
2022-08-05T20:28:45.639Z,0.70
2022-08-05T20:31:12.998Z,1.00
2022-08-05T20:33:42.275Z,1.08
2022-08-05T20:36:11.109Z,1.10
2022-08-05T20:38:40.882Z,1.02
2022-08-05T20:41:23.989Z,1.00
2022-08-05T20:43:58.790Z,1.15
2022-08-05T20:46:28.901Z,1.63
2022-08-05T20:48:56.203Z,1.13
2022-08-05T20:51:26.620Z,1.05
2022-08-05T20:53:56.991Z,0.90
2022-08-05T20:56:28.681Z,1.20
2022-08-05T20:59:11.366Z,1.00
2022-08-05T21:01:45.023Z,0.90
2022-08-05T21:04:12.505Z,1.42
2022-08-05T21:06:45.063Z,1.00
2022-08-05T21:09:15.105Z,1.90
2022-08-05T21:12:10.553Z,1.20
2022-08-05T21:14:34.773Z,1.00
2022-08-05T21:17:05.442Z,1.25
2022-08-05T21:19:46.648Z,1.13
2022-08-05T21:22:21.730Z,1.30
2022-08-05T21:24:52.498Z,0.90
2022-08-05T21:27:25.050Z,1.00
2022-08-05T21:29:58.237Z,1.05
2022-08-05T21:32:29.473Z,1.90
2022-08-05T21:35:18.109Z,0.80
2022-08-05T21:37:47.462Z,0.90
2022-08-05T21:40:24.602Z,1.15
2022-08-05T21:42:53.694Z,1.35
2022-08-05T21:45:26.440Z,1.20
2022-08-05T21:48:09.912Z,1.30
2022-08-05T21:50:37.559Z,1.15
2022-08-05T21:53:16.393Z,1.17
2022-08-05T21:56:05.571Z,1.88
2022-08-05T21:58:33.226Z,1.17
2022-08-05T22:01:00.927Z,1.30
2022-08-05T22:03:51.970Z,1.33
2022-08-05T22:06:22.528Z,1.83
2022-08-05T22:08:52.566Z,1.30
2022-08-05T22:11:35.169Z,1.58
2022-08-05T22:14:18.470Z,1.52
2022-08-05T22:16:55.987Z,1.75
2022-08-05T22:19:57.141Z,1.42
2022-08-05T22:22:15.594Z,1.35
2022-08-05T22:25:01.922Z,1.95
2022-08-05T22:28:08.275Z,1.65
2022-08-05T22:30:35.097Z,1.27
2022-08-05T22:33:15.396Z,1.83
2022-08-05T22:35:48.785Z,1.30
2022-08-05T22:38:19.010Z,1.33
2022-08-05T22:40:49.552Z,1.73
2022-08-05T22:43:36.579Z,1.13
2022-08-05T22:46:13.090Z,1.50
2022-08-05T22:48:42.280Z,1.40
2022-08-05T22:51:15.923Z,1.60
2022-08-05T22:53:51.164Z,1.48
2022-08-05T22:56:30.495Z,1.50
2022-08-05T22:59:02.868Z,1.35
2022-08-05T23:01:50.803Z,1.92
2022-08-05T23:04:19.625Z,1.60
2022-08-05T23:06:47.830Z,1.42
2022-08-05T23:09:27.626Z,1.58
2022-08-05T23:12:03.920Z,1.13
2022-08-05T23:14:32.267Z,1.30
2022-08-05T23:17:24.022Z,1.95
2022-08-05T23:19:57.965Z,1.33
2022-08-05T23:22:27.300Z,1.45
2022-08-05T23:24:55.754Z,1.13
2022-08-05T23:27:24.112Z,1.73
2022-08-05T23:29:56.114Z,1.25
2022-08-05T23:32:23.721Z,1.17
2022-08-05T23:34:51.187Z,1.70
2022-08-05T23:37:19.052Z,0.98
2022-08-05T23:39:54.227Z,1.40
2022-08-05T23:42:29.051Z,1.00
2022-08-05T23:44:57.556Z,1.50
2022-08-05T23:47:25.375Z,1.38
2022-08-05T23:49:55.746Z,1.20
2022-08-05T23:52:29.375Z,1.35
2022-08-05T23:55:00.079Z,1.45
2022-08-05T23:57:28.048Z,2.03
